Time;durP1;ratioP1;P1;durP2;ratioP2;P2;SDS_P1;SDS_P2;PMS_P1;PMS_P2;Temp;Humidity;BMP_temperature;BMP_pressure;BME280_temperature;BME280_humidity;BME280_pressure;Samples;Min_cycle;Max_cycle;Signal;HPM_P1;HPM_P2
2023/05/19 00:01:55;;;;;;;3.63;2.88;;;;;;;15.73;nan;99835.91;5036849;28;20214;-81
2023/05/19 00:04:21;;;;;;;4.10;3.00;;;;;;;15.72;nan;99842.19;5038501;28;20226;-81
2023/05/19 00:06:50;;;;;;;2.50;2.20;;;;;;;15.69;nan;99836.16;5038352;28;20232;-80
2023/05/19 00:09:15;;;;;;;3.28;2.60;;;;;;;15.68;nan;99839.75;5041888;28;21216;-81
2023/05/19 00:11:41;;;;;;;3.50;3.20;;;;;;;15.66;nan;99836.38;5040037;28;20334;-81
2023/05/19 00:14:08;;;;;;;4.67;3.63;;;;;;;15.62;nan;99840.22;5038155;28;20577;-81
2023/05/19 00:16:35;;;;;;;3.25;3.05;;;;;;;15.58;nan;99833.50;5039581;28;20225;-81
2023/05/19 00:19:03;;;;;;;3.08;2.55;;;;;;;15.52;nan;99843.75;5039398;28;20209;-82
2023/05/19 00:21:28;;;;;;;4.50;3.55;;;;;;;15.48;nan;99837.84;5037686;28;20223;-81
2023/05/19 00:23:54;;;;;;;7.30;2.97;;;;;;;15.46;nan;99832.66;5036544;28;20223;-82
2023/05/19 00:26:21;;;;;;;4.65;3.50;;;;;;;15.46;nan;99837.97;5034379;28;20497;-81
2023/05/19 00:28:54;;;;;;;2.78;2.33;;;;;;;15.47;nan;99833.50;5017990;28;20271;-81
2023/05/19 00:31:20;;;;;;;4.67;2.90;;;;;;;15.46;nan;99829.19;5017964;28;20222;-81
2023/05/19 00:33:45;;;;;;;4.80;3.50;;;;;;;15.46;nan;99824.72;5016644;28;20227;-81
2023/05/19 00:36:11;;;;;;;3.20;2.87;;;;;;;15.47;nan;99823.78;4993001;28;20562;-81
2023/05/19 00:38:37;;;;;;;9.23;3.30;;;;;;;15.46;nan;99826.53;4994197;28;20226;-81
2023/05/19 00:41:04;;;;;;;3.97;2.73;;;;;;;15.47;nan;99828.22;5019168;28;20227;-81
2023/05/19 00:43:30;;;;;;;4.38;3.00;;;;;;;15.45;nan;99827.53;5018568;28;20213;-82
2023/05/19 00:45:56;;;;;;;3.78;3.00;;;;;;;15.44;nan;99825.81;4999306;28;20690;-81
2023/05/19 00:48:24;;;;;;;6.25;3.40;;;;;;;15.44;nan;99820.53;4993891;28;20226;-81
2023/05/19 00:50:49;;;;;;;3.00;2.72;;;;;;;15.41;nan;99831.38;4999916;28;20250;-81
2023/05/19 00:53:17;;;;;;;5.77;3.63;;;;;;;15.34;nan;99827.50;5016693;28;20591;-82
2023/05/19 00:55:43;;;;;;;5.90;3.67;;;;;;;15.28;nan;99828.84;5018891;28;20686;-82
2023/05/19 00:58:11;;;;;;;3.22;3.00;;;;;;;15.27;nan;99824.53;4998891;28;20214;-81
2023/05/19 01:00:37;;;;;;;3.72;3.25;;;;;;;15.26;nan;99826.34;5018233;28;20234;-81
2023/05/19 01:03:09;;;;;;;4.82;2.92;;;;;;;15.27;nan;99814.78;5016865;28;20532;-80
2023/05/19 01:05:44;;;;;;;5.15;2.80;;;;;;;15.28;nan;99812.97;5015864;28;20273;-81
2023/05/19 01:08:10;;;;;;;5.93;3.38;;;;;;;15.29;nan;99817.31;4996329;28;20221;-80
2023/05/19 01:10:35;;;;;;;7.27;3.30;;;;;;;15.30;nan;99818.16;5017602;28;20314;-80
2023/05/19 01:13:03;;;;;;;5.10;3.30;;;;;;;15.29;nan;99812.03;5016811;28;20639;-81
2023/05/19 01:15:32;;;;;;;5.57;3.38;;;;;;;15.30;nan;99803.09;5013945;28;20238;-81
2023/05/19 01:18:06;;;;;;;9.65;4.97;;;;;;;15.30;nan;99797.81;4994369;28;20223;-81
2023/05/19 01:20:45;;;;;;;4.78;2.88;;;;;;;15.31;nan;99806.59;4997687;28;20471;-81
2023/05/19 01:23:38;;;;;;;4.65;3.00;;;;;;;15.30;nan;99796.97;5021038;28;20217;-81
2023/05/19 01:26:15;;;;;;;5.15;2.60;;;;;;;15.27;nan;99798.91;5015381;28;20254;-81
2023/05/19 01:29:10;;;;;;;3.20;2.90;;;;;;;15.26;nan;99799.88;5018560;28;20241;-81
2023/05/19 01:31:37;;;;;;;5.05;3.17;;;;;;;15.25;nan;99798.19;5018696;28;20226;-80
2023/05/19 01:34:05;;;;;;;3.72;3.25;;;;;;;15.26;nan;99791.94;4992714;28;20756;-81
2023/05/19 01:36:32;;;;;;;3.80;2.57;;;;;;;15.25;nan;99798.19;5016295;28;20222;-81
2023/05/19 01:38:58;;;;;;;4.45;2.80;;;;;;;15.23;nan;99797.47;5010302;28;20819;-81
2023/05/19 01:41:25;;;;;;;2.97;2.70;;;;;;;15.21;nan;99791.47;4999500;28;20245;-81
2023/05/19 01:43:53;;;;;;;3.67;2.80;;;;;;;15.19;nan;99790.75;5017201;28;20222;-80
2023/05/19 01:46:20;;;;;;;6.45;3.50;;;;;;;15.17;nan;99792.66;5001057;28;20345;-82
2023/05/19 01:48:47;;;;;;;5.30;2.88;;;;;;;15.16;nan;99795.44;5018160;28;20240;-81
2023/05/19 01:51:12;;;;;;;4.70;2.87;;;;;;;15.15;nan;99791.09;5017140;28;20285;-81
2023/05/19 01:53:38;;;;;;;4.90;3.00;;;;;;;15.14;nan;99787.63;4998888;28;20250;-81
2023/05/19 01:56:04;;;;;;;3.10;2.80;;;;;;;15.13;nan;99791.22;4999894;28;20226;-81
2023/05/19 01:58:46;;;;;;;3.38;2.80;;;;;;;15.10;nan;99788.00;4999303;28;20357;-82
2023/05/19 02:01:52;;;;;;;6.20;2.92;;;;;;;15.07;nan;99790.88;5000615;28;20283;-81
2023/05/19 02:04:38;;;;;;;2.83;2.53;;;;;;;15.01;nan;99792.19;4976126;28;20877;-81
2023/05/19 02:07:25;;;;;;;5.43;3.03;;;;;;;14.94;nan;99804.25;5015203;28;20229;-82
2023/05/19 02:10:09;;;;;;;3.58;3.17;;;;;;;14.85;nan;99799.66;4998967;28;20222;-81
2023/05/19 02:12:37;;;;;;;4.57;3.38;;;;;;;14.79;nan;99804.47;5017687;28;20309;-81
2023/05/19 02:15:08;;;;;;;4.03;3.58;;;;;;;14.71;nan;99812.16;5016537;28;20958;-81
2023/05/19 02:17:35;;;;;;;6.88;4.45;;;;;;;14.60;nan;99815.63;5000272;28;20222;-81
2023/05/19 02:20:03;;;;;;;5.35;3.47;;;;;;;14.51;nan;99815.47;4998288;28;20347;-81
2023/05/19 02:22:29;;;;;;;3.78;3.38;;;;;;;14.39;nan;99812.81;4988934;28;20248;-81
2023/05/19 02:24:56;;;;;;;4.05;3.60;;;;;;;14.29;nan;99822.38;5017045;28;20218;-80
2023/05/19 02:27:21;;;;;;;5.65;2.75;;;;;;;14.21;nan;99811.56;5016972;28;20249;-81
2023/05/19 02:29:47;;;;;;;5.70;3.97;;;;;;;14.14;nan;99823.53;5041671;23;20236;-78
2023/05/19 02:32:13;;;;;;;6.93;3.40;;;;;;;14.06;nan;99816.19;5052579;28;20234;-78
2023/05/19 02:34:41;;;;;;;5.15;3.63;;;;;;;13.95;nan;99814.34;5075196;28;20239;-78
2023/05/19 02:37:06;;;;;;;4.90;3.10;;;;;;;13.86;nan;99817.69;5058300;28;20211;-78
2023/05/19 02:39:34;;;;;;;8.30;3.17;;;;;;;13.79;nan;99813.78;5075175;28;20550;-79
2023/05/19 02:42:00;;;;;;;5.47;3.00;;;;;;;13.71;nan;99816.16;5059081;28;20458;-78
2023/05/19 02:44:25;;;;;;;4.63;3.33;;;;;;;13.66;nan;99813.88;5073347;28;20221;-78
2023/05/19 02:46:51;;;;;;;5.87;3.23;;;;;;;13.58;nan;99815.38;5055899;28;20208;-78
2023/05/19 02:49:16;;;;;;;4.27;3.70;;;;;;;13.45;nan;99808.34;5072256;28;20234;-78
2023/05/19 02:51:42;;;;;;;6.60;2.97;;;;;;;13.38;nan;99812.38;5074981;28;20219;-77
2023/05/19 02:54:07;;;;;;;4.37;3.43;;;;;;;13.34;nan;99817.97;5054792;28;20304;-78
2023/05/19 02:56:33;;;;;;;4.37;2.83;;;;;;;13.28;nan;99813.97;5073727;28;20214;-78
2023/05/19 02:58:58;;;;;;;5.40;3.20;;;;;;;13.23;nan;99805.50;5054766;28;20231;-78
2023/05/19 03:01:24;;;;;;;4.80;3.57;;;;;;;13.18;nan;99811.16;5073940;28;20208;-78
2023/05/19 03:03:49;;;;;;;4.40;3.90;;;;;;;13.12;nan;99814.19;5070235;28;20236;-78
2023/05/19 03:06:16;;;;;;;6.10;3.90;;;;;;;13.09;nan;99816.22;5054649;28;20918;-78
2023/05/19 03:08:42;;;;;;;3.60;3.30;;;;;;;13.07;nan;99811.91;5055158;28;20263;-78
2023/05/19 03:11:08;;;;;;;6.47;4.03;;;;;;;13.02;nan;99816.66;5071981;28;20302;-78
2023/05/19 03:13:33;;;;;;;4.77;3.30;;;;;;;12.97;nan;99816.13;5063496;28;20887;-78
2023/05/19 03:15:59;;;;;;;7.37;3.80;;;;;;;12.92;nan;99820.88;5071041;28;20227;-78
2023/05/19 03:18:25;;;;;;;5.90;3.40;;;;;;;12.87;nan;99814.25;5056767;28;20548;-78
2023/05/19 03:20:52;;;;;;;3.63;3.33;;;;;;;12.81;nan;99811.09;5055787;28;21037;-78
2023/05/19 03:23:19;;;;;;;4.43;2.80;;;;;;;12.77;nan;99816.66;5073025;28;20216;-78
2023/05/19 03:25:45;;;;;;;7.03;4.47;;;;;;;12.70;nan;99812.78;5053347;28;20640;-79
2023/05/19 03:28:11;;;;;;;7.10;3.67;;;;;;;12.66;nan;99822.69;5074161;28;20224;-78
2023/05/19 03:30:36;;;;;;;8.97;3.57;;;;;;;12.60;nan;99818.69;5037129;28;20222;-78
2023/05/19 03:33:12;;;;;;;5.13;4.10;;;;;;;12.60;nan;99820.47;5031866;28;20218;-78
2023/05/19 03:35:38;;;;;;;6.35;4.00;;;;;;;12.57;nan;99821.53;5033844;28;20792;-78
2023/05/19 03:38:04;;;;;;;4.15;3.30;;;;;;;12.55;nan;99815.50;5035491;28;20836;-78
2023/05/19 03:40:29;;;;;;;4.90;3.80;;;;;;;12.52;nan;99814.88;5032993;28;20219;-79
2023/05/19 03:43:01;;;;;;;5.40;4.03;;;;;;;12.47;nan;99820.47;5038720;28;20214;-79
2023/05/19 03:45:27;;;;;;;4.40;3.40;;;;;;;12.44;nan;99825.09;5035346;28;20213;-78
2023/05/19 03:47:53;;;;;;;4.30;3.63;;;;;;;12.42;nan;99827.00;5037853;28;20218;-80
2023/05/19 03:50:48;;;;;;;7.22;3.65;;;;;;;12.39;nan;99822.78;4991363;28;20220;-79
2023/05/19 03:53:17;;;;;;;4.90;3.15;;;;;;;12.36;nan;99828.25;5040488;28;20222;-79
2023/05/19 03:55:43;;;;;;;3.20;2.90;;;;;;;12.35;nan;99829.22;5040304;28;20275;-78
2023/05/19 03:58:09;;;;;;;4.37;3.40;;;;;;;12.30;nan;99826.03;5036044;28;20844;-79
2023/05/19 04:00:35;;;;;;;3.90;3.13;;;;;;;12.27;nan;99827.09;5048712;28;20244;-77
2023/05/19 04:03:01;;;;;;;6.82;4.13;;;;;;;12.22;nan;99829.19;5037907;28;20228;-77
2023/05/19 04:05:27;;;;;;;10.33;4.63;;;;;;;12.24;nan;99829.09;5048798;28;20461;-77
2023/05/19 04:07:52;;;;;;;5.47;3.07;;;;;;;12.25;nan;99830.78;5036235;28;20250;-80
2023/05/19 04:10:18;;;;;;;4.30;3.90;;;;;;;12.25;nan;99821.06;5053212;28;20916;-79
2023/05/19 04:12:46;;;;;;;4.80;3.27;;;;;;;12.25;nan;99828.13;5053061;28;20227;-80
2023/05/19 04:15:17;;;;;;;4.95;3.35;;;;;;;12.22;nan;99825.72;5049831;28;20572;-79
2023/05/19 04:17:43;;;;;;;4.43;3.05;;;;;;;12.22;nan;99836.25;5056577;28;20208;-79
2023/05/19 04:20:09;;;;;;;3.83;3.40;;;;;;;12.17;nan;99828.66;5044012;28;20731;-79
2023/05/19 04:22:37;;;;;;;4.50;3.58;;;;;;;12.17;nan;99831.28;5047493;28;20287;-79
2023/05/19 04:25:03;;;;;;;8.95;3.83;;;;;;;12.17;nan;99831.28;5049175;28;20781;-79
2023/05/19 04:27:37;;;;;;;7.13;3.22;;;;;;;12.16;nan;99827.81;5049393;28;20209;-79
2023/05/19 04:30:05;;;;;;;5.10;3.83;;;;;;;12.13;nan;99828.00;5055783;28;20232;-78
2023/05/19 04:32:33;;;;;;;7.32;3.90;;;;;;;12.10;nan;99820.31;5057590;28;20358;-80
2023/05/19 04:34:58;;;;;;;4.70;3.80;;;;;;;12.11;nan;99818.53;5054134;28;20220;-80
2023/05/19 04:37:26;;;;;;;5.63;3.55;;;;;;;12.10;nan;99827.38;5072223;28;20240;-78
2023/05/19 04:39:53;;;;;;;7.87;4.00;;;;;;;12.10;nan;99825.59;5055257;28;20230;-78
2023/05/19 04:42:19;;;;;;;5.30;4.05;;;;;;;12.11;nan;99824.63;5073585;28;20220;-80
2023/05/19 04:44:47;;;;;;;5.93;3.80;;;;;;;12.14;nan;99827.06;5076436;28;20295;-79
2023/05/19 04:47:14;;;;;;;7.28;4.07;;;;;;;12.17;nan;99837.38;5049230;28;21057;-78
2023/05/19 04:49:39;;;;;;;4.38;3.50;;;;;;;12.23;nan;99830.88;5055922;28;20227;-78
2023/05/19 04:52:06;;;;;;;4.70;4.20;;;;;;;12.30;nan;99832.16;5056354;28;20593;-78
2023/05/19 04:54:36;;;;;;;4.15;3.60;;;;;;;12.34;nan;99832.78;5071703;28;20782;-78
2023/05/19 04:57:02;;;;;;;6.03;3.60;;;;;;;12.40;nan;99832.38;5057182;28;20223;-79
2023/05/19 04:59:31;;;;;;;4.00;3.05;;;;;;;12.45;nan;99824.16;5056169;28;20224;-78
2023/05/19 05:01:56;;;;;;;4.60;4.20;;;;;;;12.53;nan;99822.69;5055713;28;20651;-78
2023/05/19 05:04:23;;;;;;;4.68;3.47;;;;;;;12.61;nan;99830.94;5056597;28;20454;-78
2023/05/19 05:06:49;;;;;;;7.38;3.60;;;;;;;12.71;nan;99828.47;5055654;28;20214;-79
2023/05/19 05:09:17;;;;;;;4.20;3.50;;;;;;;12.87;nan;99820.34;5056839;28;20583;-79
2023/05/19 05:11:43;;;;;;;6.57;3.22;;;;;;;13.07;nan;99822.44;5056910;28;20700;-78
2023/05/19 05:14:09;;;;;;;6.23;3.77;;;;;;;13.26;nan;99829.94;5056906;28;20260;-79
2023/05/19 05:16:35;;;;;;;6.30;3.55;;;;;;;13.44;nan;99829.56;5061062;28;20533;-79
2023/05/19 05:19:01;;;;;;;9.43;4.40;;;;;;;13.60;nan;99824.03;5071322;28;20287;-79
2023/05/19 05:21:28;;;;;;;3.33;2.92;;;;;;;13.69;nan;99820.69;5071249;28;21149;-79
2023/05/19 05:23:54;;;;;;;4.15;3.83;;;;;;;13.87;nan;99829.91;5075275;28;20217;-79
2023/05/19 05:26:25;;;;;;;4.65;3.78;;;;;;;14.11;nan;99834.34;5055165;28;20222;-79
2023/05/19 05:28:54;;;;;;;3.00;2.80;;;;;;;14.20;nan;99828.34;5047146;28;20264;-79
2023/05/19 05:31:19;;;;;;;8.93;3.60;;;;;;;14.32;nan;99824.78;5034151;28;20303;-79
2023/05/19 05:33:45;;;;;;;4.20;3.77;;;;;;;14.46;nan;99818.47;5035475;28;20250;-79
2023/05/19 05:36:12;;;;;;;7.20;3.30;;;;;;;14.66;nan;99818.75;5037098;28;20752;-79
2023/05/19 05:38:38;;;;;;;7.70;3.83;;;;;;;14.83;nan;99829.72;5052373;28;20223;-79
2023/05/19 05:41:04;;;;;;;8.50;4.10;;;;;;;15.02;nan;99825.63;5035667;28;20763;-79
2023/05/19 05:43:30;;;;;;;7.40;3.55;;;;;;;15.14;nan;99818.53;5037159;28;20491;-79
2023/05/19 05:45:59;;;;;;;5.30;3.55;;;;;;;15.30;nan;99812.84;5035033;28;20212;-79
2023/05/19 05:48:25;;;;;;;8.83;3.17;;;;;;;15.43;nan;99824.16;5033699;28;20218;-78
2023/05/19 05:50:53;;;;;;;6.45;3.47;;;;;;;15.57;nan;99815.09;5036512;28;20304;-79
2023/05/19 05:53:25;;;;;;;3.10;2.80;;;;;;;15.74;nan;99821.69;5036543;28;20547;-79
2023/05/19 05:55:53;;;;;;;4.65;3.08;;;;;;;15.82;nan;99814.78;5036328;28;20265;-79
2023/05/19 05:58:20;;;;;;;3.45;2.83;;;;;;;15.96;nan;99810.16;5034941;28;20749;-79
2023/05/19 06:00:48;;;;;;;6.40;3.55;;;;;;;16.04;nan;99819.19;5033762;28;20572;-79
2023/05/19 06:03:13;;;;;;;8.30;4.30;;;;;;;16.15;nan;99813.81;5034557;28;20459;-79
2023/05/19 06:05:39;;;;;;;4.60;3.37;;;;;;;16.28;nan;99815.41;5035051;28;20354;-79
2023/05/19 06:08:05;;;;;;;3.67;2.73;;;;;;;16.32;nan;99816.88;5036997;28;20225;-79
2023/05/19 06:10:30;;;;;;;4.37;3.90;;;;;;;16.32;nan;99811.56;5053377;28;20217;-79
2023/05/19 06:12:57;;;;;;;7.05;3.45;;;;;;;16.30;nan;99818.78;5035161;28;20684;-79
2023/05/19 06:15:24;;;;;;;7.70;4.55;;;;;;;16.31;nan;99816.03;5053766;28;20681;-79
2023/05/19 06:18:03;;;;;;;4.57;4.07;;;;;;;16.44;nan;99817.63;5041482;28;20670;-78
2023/05/19 06:20:28;;;;;;;4.00;3.43;;;;;;;16.56;nan;99817.44;5053457;28;20335;-79
2023/05/19 06:22:55;;;;;;;8.93;3.58;;;;;;;16.64;nan;99822.09;5035754;28;20417;-79
2023/05/19 06:25:23;;;;;;;14.02;4.10;;;;;;;16.72;nan;99821.44;5035954;28;20212;-79
2023/05/19 06:27:49;;;;;;;5.93;3.85;;;;;;;16.81;nan;99812.69;5037733;28;20460;-79
2023/05/19 06:30:15;;;;;;;5.75;3.00;;;;;;;16.96;nan;99819.34;5074102;28;20258;-80
2023/05/19 06:32:51;;;;;;;8.00;3.95;;;;;;;17.14;nan;99814.22;5059424;28;20585;-78
2023/05/19 06:35:16;;;;;;;6.90;3.88;;;;;;;17.38;nan;99816.53;5072508;28;20444;-78
2023/05/19 06:37:41;;;;;;;5.13;4.03;;;;;;;17.70;nan;99816.31;5073789;28;20229;-79
2023/05/19 06:40:08;;;;;;;5.40;3.20;;;;;;;17.85;nan;99814.13;5058289;28;20738;-78
2023/05/19 06:42:33;;;;;;;5.13;3.65;;;;;;;18.10;nan;99810.06;5075339;28;20216;-79
2023/05/19 06:45:13;;;;;;;3.38;3.05;;;;;;;18.48;nan;99808.31;5054324;28;20221;-79
2023/05/19 06:47:41;;;;;;;9.80;3.57;;;;;;;18.82;nan;99804.34;5075191;28;20212;-79
2023/05/19 06:50:08;;;;;;;4.88;3.35;;;;;;;19.03;nan;99810.28;5064912;28;20238;-79
2023/05/19 06:52:36;;;;;;;5.37;3.17;;;;;;;19.29;nan;99802.44;5054555;28;20707;-79
2023/05/19 06:55:02;;;;;;;5.00;3.20;;;;;;;19.38;nan;99800.69;5051597;28;20486;-79
2023/05/19 06:57:29;;;;;;;8.40;2.90;;;;;;;19.50;nan;99807.50;5072629;28;20447;-79
2023/05/19 06:59:55;;;;;;;3.73;3.27;;;;;;;19.46;nan;99801.63;5055715;28;20466;-79
2023/05/19 07:02:21;;;;;;;4.27;3.13;;;;;;;19.32;nan;99803.97;5055171;28;20203;-78
2023/05/19 07:04:47;;;;;;;8.40;3.80;;;;;;;19.23;nan;99811.03;5059993;28;20428;-79
2023/05/19 07:07:15;;;;;;;6.20;3.40;;;;;;;19.19;nan;99799.81;5059491;28;20365;-79
2023/05/19 07:09:41;;;;;;;3.90;3.60;;;;;;;19.12;nan;99806.75;5059416;28;20958;-78
2023/05/19 07:12:06;;;;;;;5.80;3.57;;;;;;;19.27;nan;99803.56;5056880;28;20449;-79
2023/05/19 07:14:32;;;;;;;6.50;3.20;;;;;;;19.57;nan;99803.22;5058334;28;20320;-79
2023/05/19 07:16:57;;;;;;;3.67;2.90;;;;;;;19.61;nan;99791.31;5058354;28;20218;-78
2023/05/19 07:19:23;;;;;;;4.07;3.70;;;;;;;19.63;nan;99797.31;5055809;28;20792;-79
2023/05/19 07:21:49;;;;;;;4.63;3.00;;;;;;;19.74;nan;99790.97;5057139;28;20259;-78
2023/05/19 07:24:15;;;;;;;5.47;4.10;;;;;;;19.98;nan;99789.50;5077113;28;21059;-79
2023/05/19 07:26:41;;;;;;;6.37;4.10;;;;;;;20.19;nan;99782.00;5074900;28;20290;-79
2023/05/19 07:29:07;;;;;;;3.23;3.00;;;;;;;20.46;nan;99778.34;5064813;28;20237;-79
2023/05/19 07:31:32;;;;;;;3.80;3.40;;;;;;;20.72;nan;99769.53;5050134;28;20469;-79
2023/05/19 07:33:58;;;;;;;7.97;3.10;;;;;;;20.84;nan;99767.41;5051721;28;20256;-79
2023/05/19 07:36:23;;;;;;;5.83;3.07;;;;;;;21.00;nan;99764.81;5051439;28;20212;-79
2023/05/19 07:38:49;;;;;;;4.17;3.77;;;;;;;21.16;nan;99761.38;5053316;28;20640;-78
2023/05/19 07:41:14;;;;;;;7.33;3.10;;;;;;;21.40;nan;99756.13;5052013;28;20215;-79
2023/05/19 07:43:40;;;;;;;6.90;2.60;;;;;;;21.47;nan;99758.13;5052180;28;20288;-78
2023/05/19 07:46:05;;;;;;;4.10;2.97;;;;;;;21.48;nan;99759.81;5050433;28;20236;-78
2023/05/19 07:48:31;;;;;;;9.70;3.70;;;;;;;21.56;nan;99752.63;5053592;28;20222;-78
2023/05/19 07:50:56;;;;;;;4.00;3.33;;;;;;;21.60;nan;99754.00;5053617;28;20215;-78
2023/05/19 07:53:22;;;;;;;3.13;2.90;;;;;;;21.71;nan;99754.66;5049348;28;20217;-79
2023/05/19 07:55:48;;;;;;;5.20;3.13;;;;;;;21.81;nan;99753.50;5050125;28;20214;-78
2023/05/19 07:58:13;;;;;;;5.73;2.93;;;;;;;21.87;nan;99747.50;5046284;28;20219;-78
2023/05/19 08:00:41;;;;;;;4.83;3.93;;;;;;;22.09;nan;99745.16;5049693;28;20264;-78
2023/05/19 08:03:07;;;;;;;7.50;3.40;;;;;;;22.30;nan;99748.16;5048089;28;20230;-78
2023/05/19 08:05:34;;;;;;;6.13;2.83;;;;;;;22.40;nan;99742.59;5051680;28;20469;-79
2023/05/19 08:07:59;;;;;;;4.17;3.70;;;;;;;22.59;nan;99741.38;5052556;28;20567;-79
2023/05/19 08:10:25;;;;;;;5.23;3.63;;;;;;;22.65;nan;99740.69;5046950;28;20525;-79
2023/05/19 08:12:50;;;;;;;3.40;2.93;;;;;;;22.57;nan;99737.22;5044224;28;20292;-78
2023/05/19 08:15:15;;;;;;;2.90;2.70;;;;;;;22.24;nan;99731.94;5047342;28;21149;-79
2023/05/19 08:17:41;;;;;;;6.63;3.03;;;;;;;22.02;nan;99736.13;5050368;28;20317;-79
2023/05/19 08:20:08;;;;;;;3.53;2.80;;;;;;;21.88;nan;99733.09;5054377;28;20222;-79
2023/05/19 08:22:34;;;;;;;5.43;3.80;;;;;;;21.67;nan;99726.59;5048461;28;20272;-79
2023/05/19 08:25:00;;;;;;;6.93;3.03;;;;;;;21.50;nan;99723.06;5047895;28;20465;-79
2023/05/19 08:27:25;;;;;;;5.23;3.33;;;;;;;21.45;nan;99714.72;5048378;28;20323;-79
2023/05/19 08:29:51;;;;;;;5.47;2.77;;;;;;;21.51;nan;99720.22;5076540;22;20238;-84
2023/05/19 08:32:18;;;;;;;2.70;2.50;;;;;;;21.62;nan;99721.75;5045925;28;20221;-85
2023/05/19 08:34:44;;;;;;;3.93;3.40;;;;;;;21.72;nan;99722.41;5054944;28;20219;-86
2023/05/19 08:37:10;;;;;;;5.13;2.70;;;;;;;21.78;nan;99711.03;5046990;28;20473;-83
2023/05/19 08:39:36;;;;;;;6.70;2.67;;;;;;;21.83;nan;99716.72;5064189;28;20478;-84
2023/05/19 08:42:01;;;;;;;7.47;3.77;;;;;;;21.84;nan;99718.38;5060417;28;20209;-82
2023/05/19 08:44:27;;;;;;;5.93;3.10;;;;;;;21.72;nan;99716.25;5063649;28;20298;-82
2023/05/19 08:46:59;;;;;;;4.60;2.80;;;;;;;21.64;nan;99711.72;5062551;28;20216;-84
2023/05/19 08:49:29;;;;;;;4.30;3.03;;;;;;;21.59;nan;99714.06;5066563;28;20317;-81
2023/05/19 08:51:59;;;;;;;4.60;3.27;;;;;;;21.53;nan;99715.56;5064668;28;20453;-82
2023/05/19 08:54:32;;;;;;;4.23;3.07;;;;;;;21.39;nan;99719.72;5065298;28;21459;-83
2023/05/19 08:56:58;;;;;;;3.37;2.70;;;;;;;21.22;nan;99712.63;5062995;28;20487;-81
2023/05/19 08:59:24;;;;;;;3.60;2.87;;;;;;;21.15;nan;99716.97;5063179;28;21043;-84
2023/05/19 09:01:50;;;;;;;2.47;2.23;;;;;;;21.17;nan;99714.94;5061898;28;20530;-83
2023/05/19 09:04:16;;;;;;;3.43;2.83;;;;;;;21.09;nan;99704.25;5065935;28;20217;-85
2023/05/19 09:06:43;;;;;;;3.17;2.80;;;;;;;20.93;nan;99716.56;5043807;28;20211;-82
2023/05/19 09:09:09;;;;;;;4.30;2.57;;;;;;;20.89;nan;99707.19;5064543;28;20216;-82
2023/05/19 09:11:36;;;;;;;2.63;2.43;;;;;;;20.92;nan;99696.19;5059821;28;20514;-85
2023/05/19 09:14:03;;;;;;;3.43;2.67;;;;;;;20.99;nan;99705.22;5059788;28;20534;-82
2023/05/19 09:16:29;;;;;;;4.07;2.70;;;;;;;20.99;nan;99699.06;5065853;28;20221;-84
2023/05/19 09:18:59;;;;;;;4.40;2.80;;;;;;;21.00;nan;99696.22;5062010;28;20471;-83
2023/05/19 09:21:31;;;;;;;2.57;2.37;;;;;;;20.98;nan;99692.88;5060098;28;20473;-83
2023/05/19 09:23:58;;;;;;;5.20;3.47;;;;;;;20.94;nan;99685.34;5042712;28;20527;-82
2023/05/19 09:26:23;;;;;;;3.07;2.63;;;;;;;20.88;nan;99697.53;5062006;28;20475;-82
2023/05/19 09:28:49;;;;;;;3.73;2.60;;;;;;;20.83;nan;99691.00;5067853;28;20479;-82
2023/05/19 09:31:15;;;;;;;7.97;2.70;;;;;;;20.83;nan;99701.69;5069046;28;20232;-84
2023/05/19 09:33:42;;;;;;;7.63;4.87;;;;;;;20.86;nan;99698.69;5041860;28;20229;-83
2023/05/19 09:36:09;;;;;;;3.10;2.83;;;;;;;20.90;nan;99689.34;5061021;28;20211;-85
2023/05/19 09:38:36;;;;;;;7.40;3.70;;;;;;;20.81;nan;99683.13;5061527;28;21232;-82
2023/05/19 09:41:04;;;;;;;4.30;3.37;;;;;;;20.63;nan;99688.59;5063235;28;20785;-82
2023/05/19 09:43:32;;;;;;;4.50;3.27;;;;;;;20.59;nan;99684.56;5062556;28;21794;-84
2023/05/19 09:46:05;;;;;;;4.53;2.63;;;;;;;20.73;nan;99686.59;5064294;28;20887;-84
2023/05/19 09:48:31;;;;;;;3.72;3.10;;;;;;;20.88;nan;99689.50;5065003;28;20794;-85
2023/05/19 09:50:57;;;;;;;3.37;2.53;;;;;;;20.93;nan;99691.72;5060407;28;20254;-87
2023/05/19 09:53:24;;;;;;;3.90;2.90;;;;;;;20.96;nan;99694.03;5061408;28;20468;-85
2023/05/19 09:55:50;;;;;;;6.00;3.07;;;;;;;20.90;nan;99679.50;5062005;28;20489;-84
2023/05/19 09:58:19;;;;;;;7.63;3.57;;;;;;;20.74;nan;99692.81;5061431;28;20946;-84
2023/05/19 10:00:46;;;;;;;3.70;3.17;;;;;;;20.62;nan;99686.06;5062257;28;20582;-87
2023/05/19 10:03:12;;;;;;;2.93;2.30;;;;;;;20.52;nan;99692.34;5061910;28;20479;-82
2023/05/19 10:05:38;;;;;;;5.47;3.87;;;;;;;20.42;nan;99686.28;5060716;28;20537;-85
2023/05/19 10:08:09;;;;;;;3.20;2.90;;;;;;;20.28;nan;99692.19;5061829;28;20257;-84
2023/05/19 10:10:35;;;;;;;3.77;3.37;;;;;;;20.19;nan;99690.47;5059800;28;20476;-83
2023/05/19 10:13:03;;;;;;;5.40;3.17;;;;;;;20.14;nan;99690.94;5063769;28;20947;-84
2023/05/19 10:15:28;;;;;;;5.30;3.17;;;;;;;20.15;nan;99700.63;5067551;28;20476;-85
2023/05/19 10:17:55;;;;;;;3.43;2.87;;;;;;;20.19;nan;99685.16;5061130;28;20468;-81
2023/05/19 10:20:21;;;;;;;3.43;3.00;;;;;;;20.26;nan;99691.53;5060698;28;20487;-85
2023/05/19 10:22:47;;;;;;;6.03;3.10;;;;;;;20.35;nan;99687.91;5060383;28;20488;-85
2023/05/19 10:25:18;;;;;;;3.30;3.00;;;;;;;20.34;nan;99680.91;5060908;28;20231;-82
2023/05/19 10:27:59;;;;;;;4.90;3.27;;;;;;;20.31;nan;99674.06;5062076;28;20478;-85
2023/05/19 10:30:29;;;;;;;5.70;3.20;;;;;;;20.21;nan;99684.00;5063518;28;20470;-85
2023/05/19 10:32:56;;;;;;;4.80;3.37;;;;;;;20.15;nan;99678.47;5061554;28;20447;-82
2023/05/19 10:35:30;;;;;;;5.10;3.30;;;;;;;20.11;nan;99676.09;5058432;28;21817;-85
2023/05/19 10:38:21;;;;;;;5.47;2.80;;;;;;;20.02;nan;99687.72;5063662;28;21078;-82
2023/05/19 10:41:05;;;;;;;4.37;3.80;;;;;;;20.09;nan;99686.09;5061458;28;20505;-85
2023/05/19 10:43:43;;;;;;;3.27;2.93;;;;;;;20.14;nan;99685.63;5061588;28;20482;-85
2023/05/19 10:46:09;;;;;;;3.23;2.37;;;;;;;20.20;nan;99681.47;5025716;28;20453;-81
2023/05/19 10:48:37;;;;;;;4.60;3.30;;;;;;;20.20;nan;99681.47;5058457;28;20475;-82
2023/05/19 10:51:03;;;;;;;8.80;3.90;;;;;;;20.09;nan;99675.44;5061702;28;20247;-81
2023/05/19 10:53:31;;;;;;;3.17;2.83;;;;;;;20.19;nan;99679.81;5063789;28;20454;-85
2023/05/19 10:55:57;;;;;;;2.87;2.30;;;;;;;20.37;nan;99675.25;5061144;28;20531;-85
2023/05/19 10:58:41;;;;;;;6.30;3.40;;;;;;;20.41;nan;99668.59;5063046;28;20462;-83
2023/05/19 11:01:08;;;;;;;4.90;2.57;;;;;;;20.27;nan;99679.88;5059092;28;20475;-83
2023/05/19 11:03:50;;;;;;;2.77;2.27;;;;;;;20.24;nan;99677.50;5061124;28;20805;-81
2023/05/19 11:06:24;;;;;;;5.70;3.00;;;;;;;20.13;nan;99675.13;5043952;28;20482;-84
2023/05/19 11:08:56;;;;;;;7.90;3.27;;;;;;;19.99;nan;99674.69;5060712;28;20478;-81
2023/05/19 11:11:21;;;;;;;7.70;3.40;;;;;;;20.00;nan;99683.53;5062759;28;20531;-85
2023/05/19 11:13:50;;;;;;;5.10;3.03;;;;;;;20.08;nan;99676.41;5061321;28;20500;-83
2023/05/19 11:16:25;;;;;;;3.20;2.83;;;;;;;20.10;nan;99679.78;5059974;28;20955;-86
2023/05/19 11:18:53;;;;;;;3.87;2.90;;;;;;;19.94;nan;99674.34;5064359;28;20487;-84
2023/05/19 11:21:19;;;;;;;3.20;2.43;;;;;;;19.97;nan;99675.84;5064862;28;20491;-84
2023/05/19 11:23:44;;;;;;;5.23;2.63;;;;;;;20.01;nan;99671.84;5062630;28;20470;-85
2023/05/19 11:26:11;;;;;;;3.50;2.53;;;;;;;19.91;nan;99677.31;5060848;28;20460;-81
2023/05/19 11:28:37;;;;;;;3.50;2.27;;;;;;;19.98;nan;99670.38;5038153;28;21061;-81
2023/05/19 11:31:06;;;;;;;4.93;2.57;;;;;;;20.20;nan;99676.16;5061263;28;20520;-85
2023/05/19 11:33:32;;;;;;;2.63;2.43;;;;;;;20.44;nan;99675.44;5061262;28;20462;-81
2023/05/19 11:35:58;;;;;;;4.72;2.90;;;;;;;20.59;nan;99673.06;5061570;28;20428;-83
2023/05/19 11:38:24;;;;;;;6.30;3.73;;;;;;;20.70;nan;99672.75;5059555;28;20713;-82
2023/05/19 11:40:52;;;;;;;4.47;3.00;;;;;;;20.69;nan;99671.94;5061003;28;20262;-82
2023/05/19 11:43:18;;;;;;;4.03;2.63;;;;;;;20.72;nan;99666.25;5061384;28;20311;-82
2023/05/19 11:45:44;;;;;;;3.23;1.90;;;;;;;20.83;nan;99672.31;5060658;28;20560;-83
2023/05/19 11:48:11;;;;;;;4.27;2.90;;;;;;;20.81;nan;99659.09;5058446;28;20224;-84
2023/05/19 11:50:37;;;;;;;3.10;2.80;;;;;;;20.75;nan;99659.75;5060386;28;20482;-84
2023/05/19 11:53:02;;;;;;;3.80;3.10;;;;;;;20.57;nan;99661.69;5068622;28;20521;-81
2023/05/19 11:55:28;;;;;;;5.90;3.20;;;;;;;20.60;nan;99662.19;5048826;28;20469;-81